METAR Data

Data at: 1154 UTC 24 May 2022

METAR for:KBGR (Bangor Intl Arpt, ME, US)
Text:KBGR 241053Z 01007KT 10SM FEW150 SCT250 08/03 A3038 RMK AO2 SLP287 T00830028
Temperature: 8.3°C ( 47°F)
Dewpoint: 2.8°C ( 37°F) [RH = 68%]
Pressure (altimeter):30.38 inches Hg (1028.9 mb) [Sea level pressure: 1028.7 mb]
Winds:from the N (10 degrees) at 8 MPH (7 knots; 3.6 m/s)
Visibility:10 or more sm (16+ km)
Ceiling:at least 12,000 feet AGL
Clouds: few clouds at 15000 feet AGL, scattered clouds at 25000 feet AGL